Time;durP1;ratioP1;P1;durP2;ratioP2;P2;SDS_P1;SDS_P2;PMS_P1;PMS_P2;Temp;Humidity;BMP_temperature;BMP_pressure;BME280_temperature;BME280_humidity;BME280_pressure;Samples;Min_cycle;Max_cycle;Signal;HPM_P1;HPM_P2
2022/04/30 00:00:29;;;;;;;10.10;9.10;;;12.40;93.10;;;;;;5012846;28;20642;-68
2022/04/30 00:02:57;;;;;;;8.90;8.00;;;12.40;92.80;;;;;;5012583;28;20404;-68
2022/04/30 00:05:24;;;;;;;9.50;8.50;;;12.40;92.90;;;;;;5011396;28;20434;-68
2022/04/30 00:07:49;;;;;;;10.57;8.90;;;12.40;92.90;;;;;;5011631;28;20453;-68
2022/04/30 00:10:15;;;;;;;10.40;8.17;;;12.50;92.90;;;;;;5012227;28;20446;-69
2022/04/30 00:12:41;;;;;;;10.50;9.40;;;12.40;92.90;;;;;;5011954;28;20517;-68
2022/04/30 00:15:08;;;;;;;11.03;8.77;;;12.40;93.00;;;;;;5012391;28;20242;-68
2022/04/30 00:17:34;;;;;;;11.50;10.20;;;12.40;93.40;;;;;;5010297;28;20195;-69
2022/04/30 00:20:00;;;;;;;10.50;8.47;;;12.30;93.00;;;;;;5012357;28;20414;-69
2022/04/30 00:22:26;;;;;;;11.70;9.63;;;12.30;93.30;;;;;;5012469;28;20215;-68
2022/04/30 00:24:51;;;;;;;11.53;9.40;;;12.30;93.30;;;;;;5010457;28;20496;-68
2022/04/30 00:27:20;;;;;;;10.10;8.33;;;12.40;93.30;;;;;;5012358;28;20508;-68
2022/04/30 00:29:46;;;;;;;8.70;7.40;;;12.30;93.50;;;;;;5011661;28;20263;-68
2022/04/30 00:32:11;;;;;;;10.40;8.13;;;12.30;93.60;;;;;;5012300;28;20810;-68
2022/04/30 00:34:37;;;;;;;8.27;7.47;;;12.30;93.50;;;;;;5015042;28;20187;-69
2022/04/30 00:37:03;;;;;;;7.90;7.20;;;12.30;93.20;;;;;;5015989;28;20246;-68
2022/04/30 00:39:32;;;;;;;8.53;7.27;;;12.30;93.30;;;;;;5014520;28;20185;-68
2022/04/30 00:41:59;;;;;;;8.97;8.13;;;12.20;93.30;;;;;;5014653;28;20416;-68
2022/04/30 00:44:25;;;;;;;10.50;8.17;;;12.30;93.30;;;;;;5015496;28;20420;-68
2022/04/30 00:46:50;;;;;;;8.57;7.70;;;12.20;93.40;;;;;;5015095;28;20426;-68
2022/04/30 00:49:16;;;;;;;8.10;7.40;;;12.20;93.50;;;;;;5015385;28;20306;-68
2022/04/30 00:51:46;;;;;;;10.23;8.07;;;12.20;93.50;;;;;;5013764;28;20639;-69
2022/04/30 00:54:13;;;;;;;9.30;8.30;;;12.20;93.50;;;;;;5015572;28;20408;-68
2022/04/30 00:56:52;;;;;;;9.03;8.13;;;12.20;93.30;;;;;;5014873;28;20806;-68
2022/04/30 00:59:19;;;;;;;11.80;9.77;;;12.10;93.40;;;;;;5015589;28;20494;-68
2022/04/30 01:01:47;;;;;;;8.70;7.87;;;12.10;93.40;;;;;;5014844;28;20417;-68
2022/04/30 01:04:14;;;;;;;10.47;8.73;;;12.10;93.90;;;;;;5015413;28;20411;-68
2022/04/30 01:06:52;;;;;;;9.47;8.57;;;12.10;93.80;;;;;;5014497;28;20428;-68
2022/04/30 01:09:28;;;;;;;9.67;8.10;;;12.10;93.30;;;;;;5015341;28;20432;-68
2022/04/30 01:11:59;;;;;;;11.70;9.73;;;12.10;93.40;;;;;;5014439;28;20390;-68
2022/04/30 01:14:31;;;;;;;11.57;9.30;;;12.10;93.60;;;;;;5014996;28;20425;-68
2022/04/30 01:17:02;;;;;;;8.77;7.97;;;12.00;93.70;;;;;;5013873;28;20535;-68
2022/04/30 01:19:28;;;;;;;13.57;8.97;;;12.00;94.20;;;;;;5015188;28;20434;-68
2022/04/30 01:21:58;;;;;;;9.83;8.83;;;11.90;94.00;;;;;;5029552;28;20429;-68
2022/04/30 01:24:25;;;;;;;9.60;8.60;;;11.80;94.20;;;;;;5015077;28;20885;-68
2022/04/30 01:26:53;;;;;;;12.73;8.83;;;11.80;94.20;;;;;;5014321;28;20793;-68
2022/04/30 01:29:21;;;;;;;12.03;8.00;;;11.70;94.30;;;;;;5014954;28;20413;-68
2022/04/30 01:37:28;;;;;;;9.07;8.13;;;11.50;94.70;;;;;;5014553;28;20886;-68
2022/04/30 01:40:03;;;;;;;9.90;9.00;;;11.40;95.00;;;;;;5012438;28;20437;-68
2022/04/30 01:42:44;;;;;;;9.13;8.30;;;11.40;95.50;;;;;;5014350;28;20413;-68
2022/04/30 01:45:11;;;;;;;10.53;9.47;;;11.40;95.60;;;;;;5014204;28;20761;-68
2022/04/30 01:47:43;;;;;;;9.50;8.50;;;11.40;95.80;;;;;;5013809;28;20416;-69
2022/04/30 01:50:09;;;;;;;8.90;7.77;;;11.40;95.40;;;;;;5013199;28;20445;-68
2022/04/30 01:52:34;;;;;;;12.50;8.97;;;11.40;95.60;;;;;;5013892;28;20433;-74
2022/04/30 01:55:01;;;;;;;9.77;8.30;;;11.40;95.60;;;;;;5014205;28;20473;-68
2022/04/30 01:57:27;;;;;;;8.60;7.80;;;11.40;95.60;;;;;;5014433;28;20417;-68
2022/04/30 01:59:54;;;;;;;9.60;8.60;;;11.50;95.90;;;;;;5013543;28;20420;-69
2022/04/30 02:02:23;;;;;;;12.63;9.33;;;11.50;95.80;;;;;;5014367;28;20421;-68
2022/04/30 02:04:51;;;;;;;14.57;9.13;;;11.50;95.80;;;;;;5013697;28;20457;-69
2022/04/30 02:07:18;;;;;;;11.50;9.03;;;11.50;95.90;;;;;;5014263;28;20440;-68
2022/04/30 02:09:44;;;;;;;9.50;8.60;;;11.50;96.00;;;;;;5013264;28;20417;-68
2022/04/30 02:12:10;;;;;;;9.93;8.57;;;11.60;96.00;;;;;;5014540;28;20417;-68
2022/04/30 02:14:39;;;;;;;10.20;9.13;;;11.50;96.10;;;;;;5013523;28;20257;-71
2022/04/30 02:17:06;;;;;;;10.40;8.90;;;11.50;96.30;;;;;;5012750;28;20269;-68
2022/04/30 02:20:18;;;;;;;10.67;9.23;;;11.40;96.50;;;;;;5012774;28;20428;-68
2022/04/30 02:22:21;;;;;;;9.60;8.53;;;11.30;96.70;;;;;;5013855;28;20417;-68
2022/04/30 02:24:48;;;;;;;9.07;8.20;;;11.30;96.70;;;;;;5013064;28;20429;-68
2022/04/30 02:27:14;;;;;;;8.60;7.80;;;11.30;96.70;;;;;;5012607;28;20422;-68
2022/04/30 02:29:40;;;;;;;10.40;9.40;;;11.30;97.00;;;;;;5013201;28;20425;-69
2022/04/30 02:32:06;;;;;;;10.00;8.07;;;11.20;97.10;;;;;;5014052;28;20420;-68
2022/04/30 02:34:34;;;;;;;10.80;8.30;;;11.20;97.10;;;;;;5013895;28;20465;-68
2022/04/30 02:37:01;;;;;;;9.47;8.10;;;11.20;96.80;;;;;;5013001;28;20471;-68
2022/04/30 02:39:26;;;;;;;8.47;7.57;;;11.20;96.80;;;;;;5012476;28;20421;-68
2022/04/30 02:41:52;;;;;;;11.23;8.30;;;11.20;96.80;;;;;;5011918;28;20431;-68
2022/04/30 02:44:19;;;;;;;8.33;7.40;;;11.30;96.90;;;;;;5013282;28;20175;-69
2022/04/30 02:46:44;;;;;;;12.80;7.40;;;11.10;96.70;;;;;;5011399;28;20511;-68
2022/04/30 02:49:10;;;;;;;9.97;8.00;;;11.10;96.80;;;;;;5013499;28;20589;-68
2022/04/30 02:51:36;;;;;;;8.20;7.40;;;11.10;96.80;;;;;;5013769;28;20173;-68
2022/04/30 02:54:01;;;;;;;8.37;7.57;;;11.10;96.80;;;;;;5012547;28;20182;-68
2022/04/30 02:56:28;;;;;;;14.00;7.53;;;11.00;96.90;;;;;;5012257;28;20285;-68
2022/04/30 03:01:38;;;;;;;11.07;7.60;;;11.00;97.10;;;;;;5012706;28;20398;-76
2022/04/30 03:04:04;;;;;;;8.97;7.17;;;11.00;97.10;;;;;;5013210;28;20433;-68
2022/04/30 03:06:34;;;;;;;8.20;7.50;;;11.00;97.30;;;;;;5013349;28;20187;-68
2022/04/30 03:09:00;;;;;;;9.03;7.47;;;10.90;96.80;;;;;;5012651;28;20421;-68
2022/04/30 03:11:26;;;;;;;9.30;8.40;;;11.00;97.00;;;;;;5013097;28;20900;-68
2022/04/30 03:13:52;;;;;;;8.93;7.57;;;10.90;97.20;;;;;;5012811;28;20262;-68
2022/04/30 03:21:47;;;;;;;9.77;7.60;;;10.80;97.30;;;;;;5012154;28;20409;-68
2022/04/30 03:24:18;;;;;;;8.03;7.13;;;10.70;97.50;;;;;;5012934;28;20902;-68
2022/04/30 03:26:48;;;;;;;10.07;7.00;;;10.70;97.60;;;;;;5011244;28;20261;-68
2022/04/30 03:29:15;;;;;;;7.73;6.93;;;10.80;97.60;;;;;;5012650;28;20426;-68
2022/04/30 03:31:42;;;;;;;11.73;7.30;;;10.80;97.70;;;;;;5011431;28;20432;-70
2022/04/30 03:34:12;;;;;;;7.80;7.10;;;10.80;97.80;;;;;;5012700;28;20420;-69
2022/04/30 03:36:38;;;;;;;8.90;6.90;;;10.80;98.00;;;;;;5011488;28;20493;-68
2022/04/30 03:39:04;;;;;;;6.87;6.17;;;10.80;98.10;;;;;;5012280;28;20531;-68
2022/04/30 03:41:30;;;;;;;9.20;7.30;;;10.70;98.20;;;;;;5012835;28;20500;-68
2022/04/30 03:43:56;;;;;;;13.10;6.80;;;10.70;98.00;;;;;;5012256;28;20237;-68
2022/04/30 03:46:22;;;;;;;9.20;8.30;;;10.70;98.20;;;;;;5013105;28;20180;-68
2022/04/30 03:48:53;;;;;;;8.13;7.53;;;10.70;98.60;;;;;;5011989;28;20525;-68
2022/04/30 03:51:24;;;;;;;6.70;6.10;;;10.80;98.20;;;;;;5013099;28;20257;-68
2022/04/30 03:53:50;;;;;;;7.77;6.90;;;10.80;97.90;;;;;;5012131;28;20417;-69
2022/04/30 03:56:17;;;;;;;8.27;7.50;;;10.80;98.10;;;;;;5011250;28;20455;-68
2022/04/30 03:58:44;;;;;;;6.67;6.00;;;10.40;97.90;;;;;;5012030;28;20474;-69
2022/04/30 04:01:10;;;;;;;6.20;5.43;;;10.90;98.00;;;;;;5012637;28;20421;-68
2022/04/30 04:03:36;;;;;;;9.33;6.57;;;10.90;98.00;;;;;;5012569;28;20441;-68
2022/04/30 04:06:02;;;;;;;8.77;6.33;;;10.90;97.90;;;;;;5012010;28;20452;-68
2022/04/30 04:08:28;;;;;;;10.30;9.30;;;10.80;97.70;;;;;;5016138;28;20426;-68
2022/04/30 04:10:55;;;;;;;7.53;6.67;;;10.80;97.90;;;;;;4998116;28;20432;-68
2022/04/30 04:18:51;;;;;;;8.27;7.40;;;10.90;98.60;;;;;;5015758;28;20411;-69
2022/04/30 04:21:19;;;;;;;7.40;6.80;;;10.90;98.30;;;;;;5016251;28;20466;-68
2022/04/30 04:26:30;;;;;;;8.90;7.90;;;10.80;98.20;;;;;;5016499;28;20429;-68
2022/04/30 04:28:55;;;;;;;8.30;7.50;;;10.90;98.40;;;;;;5014039;28;20421;-68
2022/04/30 04:31:22;;;;;;;9.43;5.83;;;10.90;98.60;;;;;;5016148;28;20189;-68
2022/04/30 04:33:49;;;;;;;10.07;9.27;;;11.00;98.20;;;;;;5015111;28;20646;-68
2022/04/30 04:36:16;;;;;;;7.73;7.03;;;10.90;98.10;;;;;;5015849;28;20543;-68
2022/04/30 04:38:42;;;;;;;10.60;9.60;;;10.90;98.20;;;;;;5014604;28;20471;-68
2022/04/30 04:41:08;;;;;;;8.93;7.93;;;10.90;98.20;;;;;;5015283;28;20507;-68
2022/04/30 04:43:33;;;;;;;8.63;7.73;;;10.90;98.20;;;;;;5015847;28;20413;-68
2022/04/30 04:46:02;;;;;;;9.30;8.30;;;10.90;98.10;;;;;;5015235;28;20184;-69
2022/04/30 04:48:29;;;;;;;11.20;8.40;;;10.90;98.20;;;;;;5015438;28;20223;-68
2022/04/30 04:50:55;;;;;;;8.23;6.33;;;10.90;98.30;;;;;;5015364;28;21017;-68
2022/04/30 04:53:21;;;;;;;9.10;8.20;;;10.90;98.30;;;;;;5016029;28;20509;-68
2022/04/30 04:55:47;;;;;;;9.10;7.20;;;10.90;98.60;;;;;;5014616;28;20469;-69
2022/04/30 04:58:13;;;;;;;8.33;6.90;;;10.90;98.60;;;;;;5014661;28;20196;-68
2022/04/30 05:00:39;;;;;;;14.00;7.30;;;11.00;98.60;;;;;;5014298;28;20569;-68
2022/04/30 05:03:04;;;;;;;9.93;6.90;;;10.80;98.60;;;;;;5014864;28;20722;-68
2022/04/30 05:05:30;;;;;;;8.00;7.20;;;10.80;98.70;;;;;;5015756;28;20178;-68
2022/04/30 05:07:56;;;;;;;14.10;6.70;;;10.90;98.60;;;;;;5015122;28;20186;-68
2022/04/30 05:10:21;;;;;;;7.80;7.10;;;10.90;98.60;;;;;;5015342;28;20186;-68
2022/04/30 05:12:47;;;;;;;7.87;7.17;;;10.90;98.80;;;;;;5013363;28;20254;-68
2022/04/30 05:15:13;;;;;;;8.80;7.90;;;10.90;98.80;;;;;;5015437;28;20221;-68
2022/04/30 05:17:39;;;;;;;10.03;7.40;;;10.90;98.90;;;;;;5013906;28;20180;-68
2022/04/30 05:20:06;;;;;;;9.30;6.83;;;11.00;99.10;;;;;;5013637;28;20428;-68
2022/04/30 05:22:33;;;;;;;8.70;6.97;;;11.00;98.70;;;;;;5015005;28;20186;-68
2022/04/30 05:24:58;;;;;;;8.20;7.37;;;11.00;98.90;;;;;;5014631;28;20901;-68
2022/04/30 05:27:24;;;;;;;10.47;8.87;;;11.20;98.70;;;;;;5015220;28;20417;-68
2022/04/30 05:29:50;;;;;;;10.00;9.20;;;11.10;98.80;;;;;;5014651;28;20431;-69
2022/04/30 05:32:16;;;;;;;9.33;7.00;;;11.10;98.50;;;;;;5014912;28;20178;-68
2022/04/30 05:34:41;;;;;;;11.63;8.70;;;11.10;98.80;;;;;;5015166;28;20504;-68
2022/04/30 05:37:07;;;;;;;10.77;7.73;;;11.20;98.70;;;;;;5014167;28;20210;-68
2022/04/30 05:39:33;;;;;;;10.60;9.50;;;11.20;98.90;;;;;;5015178;28;20174;-68
2022/04/30 05:41:59;;;;;;;11.03;8.90;;;11.30;98.80;;;;;;5012849;28;20182;-68
2022/04/30 05:44:24;;;;;;;8.33;7.20;;;11.20;98.70;;;;;;5014926;28;20595;-68
2022/04/30 05:46:50;;;;;;;9.70;7.20;;;11.20;98.30;;;;;;5013867;28;20627;-68
2022/04/30 05:49:16;;;;;;;9.37;8.17;;;11.30;98.10;;;;;;5014401;28;20304;-68
2022/04/30 05:51:42;;;;;;;10.33;7.90;;;11.30;98.50;;;;;;5014757;28;20271;-68
2022/04/30 05:54:07;;;;;;;10.40;9.50;;;11.30;98.40;;;;;;5013574;28;20409;-68
2022/04/30 05:56:33;;;;;;;11.30;7.77;;;11.30;98.30;;;;;;5014344;28;20228;-68
2022/04/30 05:58:59;;;;;;;7.67;6.90;;;11.40;98.30;;;;;;5013415;28;20198;-68
2022/04/30 06:01:25;;;;;;;10.17;9.17;;;11.40;98.20;;;;;;5013343;28;20414;-68
2022/04/30 06:03:51;;;;;;;7.60;6.97;;;11.40;98.00;;;;;;5012449;28;20179;-69
2022/04/30 06:06:20;;;;;;;8.30;7.50;;;11.50;97.80;;;;;;5014010;28;20179;-68
2022/04/30 06:08:47;;;;;;;7.53;6.23;;;11.50;97.70;;;;;;5013905;28;20678;-68
2022/04/30 06:11:13;;;;;;;12.10;10.10;;;11.50;97.90;;;;;;5013583;28;20416;-68
2022/04/30 06:13:39;;;;;;;7.30;6.60;;;11.50;97.90;;;;;;5012832;28;20441;-68
2022/04/30 06:16:04;;;;;;;7.17;6.53;;;11.50;97.80;;;;;;5012847;28;20511;-69
2022/04/30 06:18:30;;;;;;;6.97;6.30;;;11.40;97.90;;;;;;4995716;28;20670;-69
2022/04/30 06:20:56;;;;;;;11.97;7.63;;;11.50;98.10;;;;;;5012679;28;20198;-69
2022/04/30 06:23:22;;;;;;;9.73;8.40;;;11.40;98.00;;;;;;5012216;28;20813;-68
2022/04/30 06:25:47;;;;;;;8.37;7.60;;;11.40;97.90;;;;;;5013807;28;20462;-68
2022/04/30 06:28:14;;;;;;;9.57;8.60;;;11.30;98.30;;;;;;5013314;28;20650;-69
2022/04/30 06:30:41;;;;;;;8.30;6.57;;;11.30;98.40;;;;;;5013605;28;20196;-68
2022/04/30 06:33:07;;;;;;;8.20;6.23;;;11.30;98.40;;;;;;5013233;28;20422;-69
2022/04/30 06:35:33;;;;;;;7.80;6.93;;;11.30;98.70;;;;;;5013630;28;20464;-68
2022/04/30 06:37:59;;;;;;;7.40;6.70;;;11.30;98.70;;;;;;5011811;28;20520;-68
2022/04/30 06:40:24;;;;;;;8.20;7.40;;;11.30;98.50;;;;;;5013913;28;20833;-68
2022/04/30 06:42:50;;;;;;;8.33;7.63;;;11.40;98.50;;;;;;5013676;28;20175;-68
2022/04/30 06:45:17;;;;;;;8.70;7.73;;;11.40;98.60;;;;;;5012657;28;20190;-68
2022/04/30 06:47:43;;;;;;;10.80;8.07;;;11.50;98.80;;;;;;5013277;28;20422;-68
2022/04/30 06:50:09;;;;;;;11.70;7.50;;;11.50;98.60;;;;;;5012694;28;20440;-69
2022/04/30 06:52:35;;;;;;;10.87;7.70;;;11.50;98.50;;;;;;5013186;28;20771;-69
2022/04/30 06:57:47;;;;;;;7.70;7.00;;;11.60;98.90;;;;;;5013439;28;20410;-69
2022/04/30 07:02:59;;;;;;;6.70;6.30;;;13.40;99.90;;;;;;5013019;28;20408;-70
2022/04/30 07:05:27;;;;;;;4.20;3.90;;;15.00;96.50;;;;;;5013044;28;20427;-69
2022/04/30 07:07:53;;;;;;;4.50;4.10;;;16.00;93.40;;;;;;5012487;28;20523;-77
2022/04/30 07:10:18;;;;;;;5.50;4.50;;;16.70;90.90;;;;;;5012749;28;20410;-71
2022/04/30 07:12:44;;;;;;;6.37;5.63;;;17.00;88.50;;;;;;5012442;28;20517;-70
2022/04/30 07:15:11;;;;;;;8.20;7.40;;;17.20;86.20;;;;;;5011264;28;20183;-70
2022/04/30 07:17:38;;;;;;;16.27;13.50;;;17.40;84.60;;;;;;5011544;28;20175;-70
2022/04/30 07:20:06;;;;;;;10.70;8.70;;;17.50;83.30;;;;;;5011354;28;20418;-71
2022/04/30 07:22:32;;;;;;;7.90;7.00;;;17.60;81.60;;;;;;5011907;28;20416;-70
2022/04/30 07:24:58;;;;;;;13.30;10.10;;;17.80;81.00;;;;;;5011407;28;20410;-70
2022/04/30 07:27:23;;;;;;;28.53;20.70;;;17.60;80.00;;;;;;5011336;28;20182;-69
2022/04/30 07:29:49;;;;;;;25.20;20.97;;;17.50;80.00;;;;;;5011558;28;20635;-70
2022/04/30 07:32:15;;;;;;;17.33;15.03;;;17.50;79.90;;;;;;5010625;28;20250;-70
2022/04/30 07:34:40;;;;;;;19.87;13.93;;;17.60;79.30;;;;;;5010132;28;20179;-70
2022/04/30 07:37:11;;;;;;;9.03;8.37;;;17.70;79.20;;;;;;5011396;28;20213;-70
2022/04/30 07:39:37;;;;;;;20.27;16.00;;;17.80;77.60;;;;;;5012502;28;20163;-70
2022/04/30 07:42:03;;;;;;;15.17;13.57;;;17.80;78.00;;;;;;5014219;28;20916;-70
2022/04/30 07:44:30;;;;;;;11.43;9.00;;;17.90;77.60;;;;;;5018994;28;20426;-69
2022/04/30 07:46:56;;;;;;;8.43;7.60;;;17.90;76.60;;;;;;5019785;28;20421;-75
2022/04/30 07:49:22;;;;;;;9.70;8.70;;;17.90;75.70;;;;;;5023463;28;20461;-69
2022/04/30 07:51:57;;;;;;;12.20;9.57;;;17.80;75.20;;;;;;5018676;28;20418;-70
2022/04/30 07:54:24;;;;;;;17.63;12.27;;;17.70;74.90;;;;;;5018678;28;20186;-69
2022/04/30 07:56:54;;;;;;;9.63;8.63;;;17.70;74.30;;;;;;5018335;28;20457;-70
2022/04/30 07:59:21;;;;;;;9.30;7.87;;;17.80;73.80;;;;;;5022078;28;20420;-70
2022/04/30 08:01:47;;;;;;;6.73;6.13;;;17.80;73.60;;;;;;5021957;28;20440;-70
2022/04/30 08:04:13;;;;;;;5.47;4.77;;;17.70;72.50;;;;;;5018193;28;20421;-70
2022/04/30 08:06:38;;;;;;;6.90;6.30;;;17.70;72.00;;;;;;5018964;28;20811;-70
2022/04/30 08:09:04;;;;;;;12.20;10.70;;;17.80;71.50;;;;;;5018311;28;20537;-70
2022/04/30 08:11:30;;;;;;;52.07;31.87;;;17.80;70.40;;;;;;5019229;28;20182;-70
2022/04/30 08:13:56;;;;;;;32.97;23.37;;;17.70;71.60;;;;;;5018143;28;20190;-70
2022/04/30 08:16:21;;;;;;;48.57;32.07;;;17.80;71.70;;;;;;5018910;28;20662;-70
2022/04/30 08:18:47;;;;;;;29.50;19.80;;;17.90;71.60;;;;;;5019225;28;20783;-70
2022/04/30 08:21:13;;;;;;;26.60;19.50;;;18.00;70.50;;;;;;5017385;28;20407;-70
2022/04/30 08:23:38;;;;;;;16.10;13.83;;;18.00;69.70;;;;;;5018644;28;20241;-70
2022/04/30 08:26:04;;;;;;;40.30;26.10;;;17.90;69.00;;;;;;5018464;28;20214;-70
2022/04/30 08:28:30;;;;;;;21.03;16.97;;;17.90;70.70;;;;;;5019066;28;20171;-70
2022/04/30 08:30:57;;;;;;;25.60;20.17;;;17.80;70.30;;;;;;5017613;28;20214;-72
2022/04/30 08:33:23;;;;;;;29.27;22.00;;;17.80;70.40;;;;;;5018649;28;20619;-70
2022/04/30 08:35:49;;;;;;;14.37;12.27;;;17.70;71.50;;;;;;5018762;28;20468;-70
2022/04/30 08:38:14;;;;;;;26.70;17.00;;;17.60;71.30;;;;;;5018305;28;20419;-70
2022/04/30 08:40:44;;;;;;;17.77;15.43;;;17.60;71.40;;;;;;5018944;28;20186;-70
2022/04/30 08:43:12;;;;;;;12.03;9.90;;;17.50;71.10;;;;;;5017898;28;20509;-70
2022/04/30 08:45:39;;;;;;;9.33;8.50;;;17.50;71.60;;;;;;5018765;28;20477;-70
2022/04/30 08:48:10;;;;;;;17.20;11.27;;;17.60;71.30;;;;;;5018167;28;20522;-70
2022/04/30 08:50:38;;;;;;;12.63;9.37;;;17.60;71.10;;;;;;5018500;28;20809;-69
2022/04/30 08:53:04;;;;;;;14.50;11.87;;;17.60;70.50;;;;;;5016880;28;20453;-70
2022/04/30 08:55:30;;;;;;;15.90;12.30;;;17.70;72.40;;;;;;5015120;28;20414;-70
2022/04/30 08:57:56;;;;;;;14.27;12.77;;;17.70;72.50;;;;;;5014497;28;20475;-70
2022/04/30 09:00:23;;;;;;;11.53;9.60;;;17.80;72.60;;;;;;5015625;28;20414;-70
2022/04/30 09:02:56;;;;;;;147.03;88.43;;;18.00;71.20;;;;;;5015328;28;20517;-67
2022/04/30 09:05:28;;;;;;;23.20;16.40;;;18.10;70.90;;;;;;5015220;28;20898;-68
2022/04/30 09:07:56;;;;;;;21.93;18.70;;;18.30;70.80;;;;;;5015541;28;20401;-68
2022/04/30 09:10:24;;;;;;;11.90;10.70;;;18.30;70.60;;;;;;5014768;28;20414;-68
2022/04/30 09:12:51;;;;;;;9.67;8.77;;;18.50;70.90;;;;;;5014901;28;20901;-68
2022/04/30 09:15:17;;;;;;;13.03;9.97;;;18.70;68.80;;;;;;5014311;28;20418;-70
2022/04/30 09:17:54;;;;;;;12.90;11.23;;;18.60;68.00;;;;;;5014876;28;20491;-70
2022/04/30 09:20:20;;;;;;;8.93;7.63;;;18.70;69.00;;;;;;5014586;28;20394;-70
2022/04/30 09:22:45;;;;;;;8.50;7.80;;;18.80;67.70;;;;;;5015106;28;20772;-68
2022/04/30 09:25:17;;;;;;;6.47;6.07;;;19.00;67.80;;;;;;5013358;28;20532;-70
2022/04/30 09:27:51;;;;;;;6.50;5.90;;;19.00;66.70;;;;;;5013747;28;20669;-70
2022/04/30 09:30:27;;;;;;;5.50;5.00;;;18.80;63.30;;;;;;5013245;28;20414;-70
2022/04/30 09:33:04;;;;;;;6.77;5.40;;;18.50;63.70;;;;;;5013777;28;20818;-70
2022/04/30 09:38:16;;;;;;;5.60;5.20;;;18.40;65.60;;;;;;5014230;28;20808;-70
2022/04/30 09:40:52;;;;;;;6.43;5.83;;;18.50;64.40;;;;;;5013701;28;20418;-70
2022/04/30 09:43:18;;;;;;;6.80;6.17;;;18.30;64.10;;;;;;5014092;28;20183;-70
2022/04/30 09:45:44;;;;;;;5.93;5.33;;;18.30;65.20;;;;;;5014954;28;20429;-70
2022/04/30 09:53:57;;;;;;;6.50;5.90;;;18.00;62.00;;;;;;5014547;28;20407;-70
2022/04/30 09:56:37;;;;;;;5.60;5.20;;;18.10;64.40;;;;;;5013838;28;20984;-70
2022/04/30 09:59:10;;;;;;;5.70;5.30;;;18.20;64.50;;;;;;5013891;28;20460;-70
2022/04/30 10:01:37;;;;;;;5.93;5.30;;;18.10;62.00;;;;;;5014416;28;20437;-70
2022/04/30 10:04:18;;;;;;;5.67;5.27;;;17.90;62.50;;;;;;5013863;28;20505;-70
2022/04/30 10:06:49;;;;;;;6.33;5.83;;;17.80;67.40;;;;;;5014274;28;20453;-69
2022/04/30 10:09:24;;;;;;;6.00;5.50;;;17.70;66.10;;;;;;5013751;28;20406;-70
2022/04/30 10:12:03;;;;;;;6.67;6.13;;;17.80;67.70;;;;;;5014041;28;20893;-70
2022/04/30 10:14:52;;;;;;;5.70;5.30;;;17.90;65.40;;;;;;5013924;28;20430;-70
2022/04/30 10:17:25;;;;;;;6.90;6.30;;;18.00;64.20;;;;;;5013519;28;20560;-70
2022/04/30 10:20:23;;;;;;;6.20;5.80;;;18.20;66.40;;;;;;5014122;28;20410;-70
2022/04/30 10:22:53;;;;;;;5.83;5.40;;;18.50;66.90;;;;;;5012876;28;20406;-70
2022/04/30 10:25:32;;;;;;;6.00;5.50;;;18.60;64.80;;;;;;5013370;28;20414;-68
2022/04/30 10:27:58;;;;;;;6.57;6.00;;;18.70;66.30;;;;;;5013612;28;20430;-70
2022/04/30 10:30:27;;;;;;;6.30;5.77;;;18.70;63.30;;;;;;5013263;28;20410;-70
2022/04/30 10:33:06;;;;;;;5.50;5.10;;;18.60;63.00;;;;;;5012717;28;20175;-70
2022/04/30 10:35:40;;;;;;;5.53;5.07;;;18.40;62.50;;;;;;5013298;28;20852;-70
2022/04/30 10:38:18;;;;;;;6.07;5.67;;;18.20;62.80;;;;;;5013409;28;20476;-69
2022/04/30 10:40:49;;;;;;;5.20;4.80;;;18.00;64.00;;;;;;5013815;28;20406;-70
2022/04/30 10:43:32;;;;;;;5.20;4.80;;;18.10;64.80;;;;;;5013377;28;20419;-69
2022/04/30 10:45:59;;;;;;;5.10;4.80;;;18.00;64.50;;;;;;5013670;28;20414;-70
2022/04/30 10:48:25;;;;;;;5.43;5.03;;;18.10;67.80;;;;;;5012661;28;20492;-70
2022/04/30 10:51:08;;;;;;;5.70;5.30;;;18.20;65.80;;;;;;5013783;28;20485;-73
2022/04/30 10:53:38;;;;;;;5.43;5.00;;;18.20;61.20;;;;;;5013650;28;20524;-69
2022/04/30 10:56:07;;;;;;;112.47;78.97;;;18.20;61.80;;;;;;5011717;28;20430;-81
2022/04/30 10:58:35;;;;;;;372.43;284.53;;;18.20;61.90;;;;;;5010520;28;20179;-70
2022/04/30 11:01:18;;;;;;;29.07;24.13;;;18.40;62.40;;;;;;5012058;28;20496;-70
2022/04/30 11:03:48;;;;;;;6.07;5.57;;;18.60;62.40;;;;;;5013065;28;20422;-70
2022/04/30 11:06:30;;;;;;;6.20;5.70;;;18.60;62.90;;;;;;5012471;28;20425;-69
2022/04/30 11:09:07;;;;;;;6.50;5.90;;;18.80;64.50;;;;;;5012384;28;20422;-70
2022/04/30 11:11:37;;;;;;;5.83;5.53;;;19.10;62.50;;;;;;5013141;28;20183;-70
2022/04/30 11:14:11;;;;;;;6.00;5.50;;;19.20;59.20;;;;;;5012962;28;20444;-70
2022/04/30 11:16:41;;;;;;;5.83;5.53;;;19.20;58.00;;;;;;5011852;28;20465;-70
2022/04/30 11:19:11;;;;;;;6.33;5.93;;;19.20;58.10;;;;;;5006695;28;20475;-70
2022/04/30 11:21:51;;;;;;;5.00;4.60;;;19.30;58.90;;;;;;5012950;28;20425;-68
2022/04/30 11:24:31;;;;;;;9.40;6.67;;;19.40;58.00;;;;;;5012056;28;20501;-69
2022/04/30 11:27:00;;;;;;;6.97;6.37;;;19.50;57.80;;;;;;5012913;28;20421;-69
2022/04/30 11:29:27;;;;;;;7.17;5.70;;;19.50;57.00;;;;;;5012072;28;20837;-69
2022/04/30 11:31:54;;;;;;;18.07;16.07;;;19.40;56.90;;;;;;5012583;28;20500;-68
2022/04/30 11:34:20;;;;;;;24.47;20.73;;;19.30;56.20;;;;;;5011128;28;20429;-69
2022/04/30 11:36:51;;;;;;;15.13;11.73;;;19.20;56.80;;;;;;5011634;28;20500;-69
2022/04/30 11:39:19;;;;;;;15.27;13.70;;;19.30;57.60;;;;;;5011703;28;20493;-69
2022/04/30 11:41:48;;;;;;;6.70;6.00;;;19.50;57.50;;;;;;5009948;28;20414;-69
2022/04/30 11:44:15;;;;;;;6.33;5.83;;;19.60;57.00;;;;;;5012148;28;20472;-73
2022/04/30 11:46:43;;;;;;;6.60;6.10;;;19.70;57.90;;;;;;5012693;28;20414;-69
2022/04/30 11:49:15;;;;;;;6.33;5.70;;;19.90;59.80;;;;;;5011772;28;20469;-73
2022/04/30 11:51:42;;;;;;;7.10;6.43;;;19.90;57.10;;;;;;5011756;28;20453;-69
2022/04/30 11:54:10;;;;;;;6.50;6.10;;;19.90;56.00;;;;;;5012068;28;20893;-71
2022/04/30 11:56:37;;;;;;;6.60;5.90;;;19.90;56.50;;;;;;5012293;28;20462;-69
2022/04/30 11:59:04;;;;;;;6.40;5.90;;;19.80;57.10;;;;;;5012134;28;20897;-69
2022/04/30 12:01:32;;;;;;;7.53;7.00;;;19.50;57.10;;;;;;5012010;28;20414;-69
2022/04/30 12:04:02;;;;;;;6.63;6.13;;;19.20;56.80;;;;;;5012644;28;20418;-69
2022/04/30 12:06:28;;;;;;;6.43;6.03;;;19.00;57.90;;;;;;5011688;28;20743;-69
2022/04/30 12:08:55;;;;;;;8.10;7.30;;;18.70;57.70;;;;;;5012549;28;20414;-69
2022/04/30 12:11:20;;;;;;;6.20;5.80;;;18.60;59.70;;;;;;5011959;28;20418;-66
2022/04/30 12:14:03;;;;;;;7.20;6.60;;;18.60;58.60;;;;;;5011264;28;20488;-69
2022/04/30 12:16:37;;;;;;;7.13;6.40;;;18.60;58.70;;;;;;5011546;28;20476;-69
2022/04/30 12:24:41;;;;;;;8.60;7.90;;;18.50;59.20;;;;;;5011837;28;20493;-69
2022/04/30 12:27:10;;;;;;;7.53;6.83;;;18.50;60.10;;;;;;5011203;28;20422;-69
2022/04/30 12:29:37;;;;;;;8.70;8.10;;;18.40;60.40;;;;;;5015863;28;20850;-68
2022/04/30 12:32:04;;;;;;;7.60;7.00;;;18.50;60.70;;;;;;5014863;28;20412;-68
2022/04/30 12:34:37;;;;;;;6.60;6.20;;;18.50;58.20;;;;;;5014287;28;20422;-69
2022/04/30 12:37:03;;;;;;;7.30;6.80;;;18.30;56.90;;;;;;5015764;28;21012;-68
2022/04/30 12:39:29;;;;;;;6.70;6.20;;;18.20;57.20;;;;;;5030543;28;20414;-69
2022/04/30 12:41:59;;;;;;;8.17;7.47;;;17.90;56.80;;;;;;5016053;28;20425;-69
2022/04/30 12:44:25;;;;;;;8.10;7.50;;;17.90;58.30;;;;;;5015330;28;20182;-69
2022/04/30 12:46:51;;;;;;;8.03;7.33;;;18.00;58.70;;;;;;5015850;28;20459;-69
2022/04/30 12:49:17;;;;;;;7.43;6.93;;;18.20;60.10;;;;;;5015250;28;20500;-69
2022/04/30 12:51:45;;;;;;;7.10;6.60;;;18.20;58.50;;;;;;5015928;28;20484;-69
2022/04/30 12:54:13;;;;;;;7.70;7.20;;;18.20;59.90;;;;;;5014224;28;20418;-86
2022/04/30 12:56:40;;;;;;;7.63;7.07;;;18.20;62.90;;;;;;5015334;28;20507;-69
2022/04/30 12:59:06;;;;;;;8.20;7.50;;;18.30;61.90;;;;;;5015698;28;20402;-69
2022/04/30 13:01:37;;;;;;;7.60;7.10;;;18.30;59.00;;;;;;5014908;28;20433;-68
2022/04/30 13:04:03;;;;;;;8.80;8.20;;;18.30;58.90;;;;;;5015713;28;20414;-69
2022/04/30 13:06:30;;;;;;;8.60;7.97;;;18.30;58.20;;;;;;5014808;28;20814;-69
2022/04/30 13:14:28;;;;;;;9.33;8.63;;;18.50;59.80;;;;;;5014696;28;20397;-69
2022/04/30 13:16:54;;;;;;;8.77;8.17;;;18.60;58.90;;;;;;5013615;28;20478;-69
2022/04/30 13:19:20;;;;;;;8.83;8.13;;;18.60;59.60;;;;;;5014606;28;20420;-69
2022/04/30 13:21:49;;;;;;;8.43;7.77;;;18.60;59.50;;;;;;5015202;28;20330;-68
2022/04/30 13:24:16;;;;;;;8.60;7.90;;;18.50;58.30;;;;;;5013003;28;20424;-70
2022/04/30 13:26:42;;;;;;;7.67;7.17;;;18.30;58.10;;;;;;5014931;28;20426;-69
2022/04/30 13:29:11;;;;;;;7.63;7.10;;;18.10;59.00;;;;;;5014633;28;20477;-69
2022/04/30 13:31:38;;;;;;;8.57;7.97;;;18.00;58.80;;;;;;5013529;28;20468;-70
2022/04/30 13:34:04;;;;;;;8.40;7.80;;;17.80;57.80;;;;;;5014733;28;20468;-69